createdAt,value
2023-03-05T00:00:48.717Z,1.85
2023-03-05T00:03:15.407Z,2.22
2023-03-05T00:05:42.066Z,1.65
2023-03-05T00:08:08.819Z,2.50
2023-03-05T00:10:35.384Z,2.70
2023-03-05T00:13:02.640Z,2.38
2023-03-05T00:15:29.670Z,2.22
2023-03-05T00:17:56.393Z,2.03
2023-03-05T00:20:23.070Z,2.03
2023-03-05T00:22:49.924Z,2.25
2023-03-05T00:25:16.792Z,2.00
2023-03-05T00:27:43.565Z,2.40
2023-03-05T00:30:11.293Z,2.30
2023-03-05T00:32:38.225Z,2.22
2023-03-05T00:35:05.890Z,2.28
2023-03-05T00:37:32.782Z,2.30
2023-03-05T00:40:17.369Z,1.80
2023-03-05T00:42:44.240Z,2.00
2023-03-05T00:45:11.619Z,2.23
2023-03-05T00:47:38.620Z,2.63
2023-03-05T00:50:06.960Z,2.40
2023-03-05T00:52:34.048Z,2.40
2023-03-05T00:55:00.713Z,2.38
2023-03-05T00:57:27.338Z,2.70
2023-03-05T00:59:53.837Z,1.77
2023-03-05T01:02:20.339Z,2.15
2023-03-05T01:04:47.375Z,2.28
2023-03-05T01:07:14.166Z,1.65
2023-03-05T01:09:40.753Z,2.00
2023-03-05T01:12:07.966Z,2.65
2023-03-05T01:14:36.138Z,2.08
2023-03-05T01:17:02.908Z,1.73
2023-03-05T01:19:29.524Z,1.40
2023-03-05T01:21:59.586Z,1.83
2023-03-05T01:24:26.665Z,2.30
2023-03-05T01:26:53.136Z,2.30
2023-03-05T01:29:19.647Z,1.88
2023-03-05T01:31:46.239Z,2.00
2023-03-05T01:34:13.860Z,2.20
2023-03-05T01:36:43.117Z,2.28
2023-03-05T01:39:09.872Z,2.35
2023-03-05T01:41:36.431Z,1.75
2023-03-05T01:44:04.179Z,2.03
2023-03-05T01:46:36.226Z,1.87
2023-03-05T01:49:36.594Z,2.60
2023-03-05T01:52:17.645Z,1.80
2023-03-05T01:55:11.885Z,1.98
2023-03-05T01:57:43.690Z,2.35
2023-03-05T02:00:14.973Z,1.67
2023-03-05T02:02:44.753Z,2.03
2023-03-05T02:05:33.659Z,2.15
2023-03-05T02:08:02.719Z,2.53
2023-03-05T02:10:31.975Z,1.98
2023-03-05T02:13:02.203Z,2.07
2023-03-05T02:15:29.790Z,2.40
2023-03-05T02:18:01.412Z,2.22
2023-03-05T02:20:31.274Z,1.88
2023-03-05T02:22:57.844Z,1.92
2023-03-05T02:25:27.568Z,2.77
2023-03-05T02:28:18.194Z,2.22
2023-03-05T02:30:44.940Z,2.13
2023-03-05T02:33:13.272Z,2.25
2023-03-05T02:35:39.924Z,2.08
2023-03-05T02:38:06.626Z,2.20
2023-03-05T02:40:33.117Z,2.30
2023-03-05T02:42:59.774Z,2.13
2023-03-05T02:45:26.354Z,2.05
2023-03-05T02:47:53.073Z,2.05
2023-03-05T02:50:19.985Z,2.60
2023-03-05T02:52:46.929Z,2.28
2023-03-05T02:55:13.527Z,2.20
2023-03-05T02:57:40.253Z,1.98
2023-03-05T03:00:07.727Z,2.13
2023-03-05T03:02:34.364Z,2.47
2023-03-05T03:05:00.896Z,1.98
2023-03-05T03:07:27.407Z,2.25
2023-03-05T03:09:53.893Z,2.65
2023-03-05T03:12:20.425Z,3.30
2023-03-05T03:14:47.071Z,2.90
2023-03-05T03:17:15.721Z,3.92
2023-03-05T03:19:43.448Z,2.63
2023-03-05T03:22:11.506Z,3.40
2023-03-05T03:24:39.097Z,3.42
2023-03-05T03:27:06.682Z,3.47
2023-03-05T03:29:33.392Z,3.90
2023-03-05T03:32:00.575Z,4.32
2023-03-05T03:34:27.316Z,4.10
2023-03-05T03:36:54.109Z,3.97
2023-03-05T03:39:21.596Z,4.22
2023-03-05T03:41:52.102Z,4.22
2023-03-05T03:44:20.359Z,4.90
2023-03-05T03:46:49.005Z,4.85
2023-03-05T03:49:18.249Z,4.80
2023-03-05T03:51:45.306Z,4.38
2023-03-05T03:54:11.910Z,4.43
2023-03-05T03:56:38.546Z,5.22
2023-03-05T03:59:05.342Z,4.63
2023-03-05T04:01:32.300Z,4.90
2023-03-05T04:04:08.913Z,4.88
2023-03-05T04:06:35.797Z,4.78
2023-03-05T04:09:02.359Z,4.80
2023-03-05T04:11:28.991Z,5.45
2023-03-05T04:13:55.646Z,4.35
2023-03-05T04:16:22.239Z,4.40
2023-03-05T04:18:48.878Z,6.35
2023-03-05T04:21:15.622Z,5.50
2023-03-05T04:23:42.178Z,5.35
2023-03-05T04:26:08.764Z,5.32
2023-03-05T04:28:35.660Z,4.33
2023-03-05T04:31:03.060Z,5.40
2023-03-05T04:33:29.610Z,4.50
2023-03-05T04:35:56.283Z,5.03
2023-03-05T04:38:22.969Z,5.50
2023-03-05T04:41:15.346Z,5.37
2023-03-05T04:43:41.852Z,5.47
2023-03-05T04:46:08.431Z,4.95
2023-03-05T04:48:35.023Z,4.38
2023-03-05T04:51:01.840Z,4.82
2023-03-05T04:53:28.363Z,4.47
2023-03-05T04:55:55.603Z,5.13
2023-03-05T04:58:23.332Z,5.43
2023-03-05T05:00:49.873Z,5.47
2023-03-05T05:03:16.540Z,5.78
2023-03-05T05:05:43.041Z,5.23
2023-03-05T05:08:11.103Z,5.53
2023-03-05T05:10:40.089Z,3.90
2023-03-05T05:13:06.974Z,4.65
2023-03-05T05:15:33.518Z,4.30
2023-03-05T05:18:00.047Z,5.00
2023-03-05T05:20:26.763Z,3.90
2023-03-05T05:22:53.328Z,4.43
2023-03-05T05:25:19.928Z,3.50
2023-03-05T05:27:46.404Z,3.53
2023-03-05T05:30:13.303Z,3.27
2023-03-05T05:32:39.987Z,3.05
2023-03-05T05:35:07.231Z,3.03
2023-03-05T05:37:33.705Z,2.88
2023-03-05T05:40:00.268Z,2.38
2023-03-05T05:42:26.872Z,2.67
2023-03-05T05:44:55.472Z,2.45
2023-03-05T05:47:22.058Z,2.30
2023-03-05T05:49:48.580Z,2.20
2023-03-05T05:52:15.367Z,2.17
2023-03-05T05:54:42.047Z,2.17
2023-03-05T05:57:08.941Z,2.20
2023-03-05T05:59:35.522Z,2.60
2023-03-05T06:02:02.102Z,2.30
2023-03-05T06:04:28.792Z,2.03
2023-03-05T06:06:55.677Z,2.70
2023-03-05T06:09:22.496Z,2.47
2023-03-05T06:11:49.208Z,1.67
2023-03-05T06:14:15.751Z,1.67
2023-03-05T06:16:42.471Z,1.70
2023-03-05T06:19:12.258Z,1.63
2023-03-05T06:21:39.177Z,1.73
2023-03-05T06:24:06.458Z,1.67
2023-03-05T06:26:33.289Z,1.70
2023-03-05T06:28:59.813Z,1.50
2023-03-05T06:31:28.041Z,1.70
2023-03-05T06:33:57.056Z,1.73
2023-03-05T06:36:25.280Z,1.40
2023-03-05T06:38:53.469Z,1.30
2023-03-05T06:41:29.232Z,1.45
2023-03-05T06:43:56.204Z,1.50
2023-03-05T06:46:28.146Z,1.52
2023-03-05T06:49:01.200Z,1.27
2023-03-05T06:51:33.002Z,1.60
2023-03-05T06:54:02.349Z,1.85
2023-03-05T06:56:29.238Z,1.63
2023-03-05T06:58:56.066Z,1.15
2023-03-05T07:01:23.943Z,1.70
2023-03-05T07:03:52.159Z,1.10
2023-03-05T07:06:19.611Z,0.90
2023-03-05T07:08:46.506Z,1.88
2023-03-05T07:11:18.679Z,1.40
2023-03-05T07:13:47.820Z,1.33
2023-03-05T07:16:17.497Z,1.67
2023-03-05T07:18:45.258Z,1.33
2023-03-05T07:21:27.178Z,2.35
2023-03-05T07:23:55.196Z,1.67
2023-03-05T07:26:22.314Z,3.60
2023-03-05T07:28:49.146Z,1.83
2023-03-05T07:31:21.000Z,1.02
2023-03-05T07:33:49.097Z,1.02
2023-03-05T07:36:17.206Z,1.33
2023-03-05T07:38:44.438Z,1.20
2023-03-05T07:41:13.665Z,1.00
2023-03-05T07:43:40.852Z,1.40
2023-03-05T07:46:10.088Z,1.25
2023-03-05T07:48:37.430Z,1.20
2023-03-05T07:51:07.082Z,1.00
2023-03-05T07:53:34.009Z,1.30
2023-03-05T07:56:00.646Z,1.00
2023-03-05T07:58:27.237Z,1.27
2023-03-05T08:00:53.859Z,1.40
2023-03-05T08:03:20.468Z,1.42
2023-03-05T08:05:47.169Z,1.30
2023-03-05T08:08:13.832Z,1.30
2023-03-05T08:10:40.455Z,0.80
2023-03-05T08:13:07.091Z,0.80
2023-03-05T08:15:33.906Z,0.80
2023-03-05T08:18:00.981Z,0.75
2023-03-05T08:20:27.661Z,0.93
2023-03-05T08:22:54.189Z,0.70
2023-03-05T08:25:20.787Z,0.65
2023-03-05T08:27:48.065Z,0.70
2023-03-05T08:30:18.217Z,0.60
2023-03-05T08:32:45.044Z,0.70
2023-03-05T08:35:11.744Z,0.52
2023-03-05T08:37:38.415Z,0.60
2023-03-05T08:40:05.480Z,0.50
2023-03-05T08:42:31.971Z,0.50
2023-03-05T08:44:58.652Z,0.80
2023-03-05T08:47:26.660Z,0.85
2023-03-05T08:49:55.627Z,0.70
2023-03-05T08:52:23.058Z,0.60
2023-03-05T08:54:49.741Z,1.00
2023-03-05T08:57:16.816Z,0.60
2023-03-05T08:59:43.307Z,0.68
2023-03-05T09:02:13.261Z,1.10
2023-03-05T09:04:40.051Z,0.55
2023-03-05T09:07:06.759Z,0.70
2023-03-05T09:09:33.455Z,0.57
2023-03-05T09:12:01.205Z,0.77
2023-03-05T09:14:28.744Z,0.70
2023-03-05T09:16:56.480Z,0.80
2023-03-05T09:19:23.444Z,0.70
2023-03-05T09:21:50.075Z,0.65
2023-03-05T09:24:16.629Z,0.60
2023-03-05T09:26:43.376Z,0.70
2023-03-05T09:29:10.035Z,0.60
2023-03-05T09:31:37.409Z,0.80
2023-03-05T09:34:05.415Z,0.60
2023-03-05T09:36:33.160Z,0.75
2023-03-05T09:38:59.898Z,0.70
2023-03-05T09:41:26.552Z,0.70
2023-03-05T09:44:06.187Z,0.70
2023-03-05T09:46:52.861Z,1.00
2023-03-05T09:49:48.529Z,0.70
2023-03-05T09:52:20.965Z,0.63
2023-03-05T09:54:54.810Z,1.00
2023-03-05T09:57:28.881Z,0.80
2023-03-05T10:00:06.402Z,0.90
2023-03-05T10:02:36.816Z,0.70
2023-03-05T10:05:26.169Z,0.80
2023-03-05T10:08:01.131Z,0.60
2023-03-05T10:10:46.470Z,0.55
2023-03-05T10:13:34.835Z,0.60
2023-03-05T10:16:39.281Z,0.75
2023-03-05T10:19:14.693Z,0.70
2023-03-05T10:21:56.170Z,0.60
2023-03-05T10:24:29.586Z,0.50
2023-03-05T10:27:07.455Z,0.52
2023-03-05T10:29:50.162Z,0.60
2023-03-05T10:32:25.799Z,0.85
2023-03-05T10:35:19.616Z,1.00
2023-03-05T10:38:00.911Z,0.80
2023-03-05T10:40:45.777Z,0.70
2023-03-05T10:43:20.690Z,0.70
2023-03-05T10:45:49.826Z,0.75
2023-03-05T10:48:39.921Z,0.80
2023-03-05T10:51:21.842Z,0.63
2023-03-05T10:53:51.364Z,0.73
2023-03-05T10:56:21.191Z,1.10
2023-03-05T10:58:47.684Z,0.73
2023-03-05T11:01:15.633Z,0.80
2023-03-05T11:03:48.487Z,0.70
2023-03-05T11:06:15.780Z,0.90
2023-03-05T11:08:44.470Z,0.80
2023-03-05T11:11:19.705Z,0.90
2023-03-05T11:14:03.836Z,0.90
2023-03-05T11:16:33.810Z,0.80
2023-03-05T11:19:15.636Z,0.80
2023-03-05T11:21:43.263Z,0.60
2023-03-05T11:24:19.059Z,0.60
2023-03-05T11:26:56.629Z,0.70
2023-03-05T11:29:23.107Z,0.80
2023-03-05T11:31:50.085Z,0.90
2023-03-05T11:34:19.554Z,0.70
2023-03-05T11:36:53.200Z,0.75
2023-03-05T11:39:24.892Z,0.73
2023-03-05T11:41:59.197Z,0.80
2023-03-05T11:44:34.332Z,0.65
2023-03-05T11:47:16.910Z,0.70
2023-03-05T11:49:51.074Z,0.60
2023-03-05T11:52:28.123Z,0.90
2023-03-05T11:55:27.218Z,0.50
2023-03-05T11:58:11.516Z,0.95
2023-03-05T12:00:43.739Z,0.73
2023-03-05T12:03:16.782Z,1.40
2023-03-05T12:05:48.080Z,0.40
2023-03-05T12:08:21.740Z,0.60
2023-03-05T12:10:48.359Z,0.70
2023-03-05T12:13:27.985Z,0.50
2023-03-05T12:16:18.070Z,0.60
2023-03-05T12:18:52.954Z,0.75
2023-03-05T12:21:41.175Z,0.80
2023-03-05T12:24:28.150Z,0.73
2023-03-05T12:27:07.223Z,0.52
2023-03-05T12:29:44.549Z,0.60
2023-03-05T12:32:23.373Z,0.80
2023-03-05T12:34:57.682Z,0.80
2023-03-05T12:37:24.136Z,0.80
2023-03-05T12:40:04.713Z,0.88
2023-03-05T12:42:31.550Z,0.70
2023-03-05T12:45:10.669Z,0.80
2023-03-05T12:47:47.348Z,0.60
2023-03-05T12:50:39.829Z,0.80
2023-03-05T12:53:15.643Z,0.60
2023-03-05T12:55:59.104Z,0.80
2023-03-05T12:58:38.939Z,0.60
2023-03-05T13:01:11.404Z,0.75
2023-03-05T13:03:53.557Z,1.17
2023-03-05T13:06:28.962Z,1.17
2023-03-05T13:08:58.526Z,1.05
2023-03-05T13:11:25.409Z,1.25
2023-03-05T13:13:53.251Z,1.15
2023-03-05T13:16:29.220Z,1.30
2023-03-05T13:18:59.368Z,1.10
2023-03-05T13:21:29.086Z,1.13
2023-03-05T13:23:58.637Z,2.97
2023-03-05T13:26:39.429Z,1.35
2023-03-05T13:29:18.180Z,0.90
2023-03-05T13:31:55.241Z,0.93
2023-03-05T13:34:40.910Z,1.10
2023-03-05T13:37:24.117Z,1.40
2023-03-05T13:40:07.397Z,1.02
2023-03-05T13:42:36.921Z,1.60
2023-03-05T13:45:26.941Z,1.58
2023-03-05T13:48:05.929Z,1.75
2023-03-05T13:50:40.669Z,1.30
2023-03-05T13:53:31.815Z,1.70
2023-03-05T13:56:01.868Z,2.00
2023-03-05T13:58:51.499Z,2.13
2023-03-05T14:01:30.086Z,1.73
2023-03-05T14:04:03.424Z,1.43
2023-03-05T14:06:31.058Z,1.88
2023-03-05T14:09:20.576Z,2.55
2023-03-05T14:12:27.130Z,2.75
2023-03-05T14:14:54.122Z,2.67
2023-03-05T14:17:27.899Z,2.87
2023-03-05T14:20:09.831Z,2.30
2023-03-05T14:22:39.135Z,2.67
2023-03-05T14:25:25.376Z,2.75
2023-03-05T14:27:52.145Z,2.92
2023-03-05T14:30:21.742Z,3.00
2023-03-05T14:32:49.663Z,3.22
2023-03-05T14:35:18.628Z,3.00
2023-03-05T14:37:49.128Z,2.65
2023-03-05T14:40:15.707Z,2.83
2023-03-05T14:42:52.580Z,4.30
2023-03-05T14:45:29.906Z,3.20
2023-03-05T14:48:00.207Z,3.63
2023-03-05T14:50:34.682Z,2.80
2023-03-05T14:53:06.050Z,2.17
2023-03-05T14:55:34.914Z,2.17
2023-03-05T14:58:07.044Z,1.80
2023-03-05T15:00:33.670Z,2.20
2023-03-05T15:03:00.469Z,2.33
2023-03-05T15:05:27.167Z,2.45
2023-03-05T15:07:53.797Z,2.20
2023-03-05T15:10:23.714Z,2.35
2023-03-05T15:12:51.566Z,2.22
2023-03-05T15:15:19.627Z,2.63
2023-03-05T15:17:47.951Z,2.83
2023-03-05T15:20:18.474Z,2.83
2023-03-05T15:22:44.978Z,3.58
2023-03-05T15:25:12.086Z,2.73
2023-03-05T15:27:39.182Z,3.22
2023-03-05T15:30:22.194Z,3.60
2023-03-05T15:32:49.211Z,3.45
2023-03-05T15:35:15.892Z,3.30
2023-03-05T15:37:42.656Z,2.47
2023-03-05T15:40:09.978Z,3.40
2023-03-05T15:42:36.535Z,3.00
2023-03-05T15:45:03.333Z,2.28
2023-03-05T15:47:32.406Z,2.17
2023-03-05T15:50:00.120Z,2.10
2023-03-05T15:52:26.710Z,2.50
2023-03-05T15:54:53.255Z,2.13
2023-03-05T15:57:23.765Z,2.10
2023-03-05T15:59:50.256Z,2.20
2023-03-05T16:02:16.940Z,2.15
2023-03-05T16:04:43.524Z,2.00
2023-03-05T16:07:10.734Z,1.80
2023-03-05T16:09:41.425Z,1.70
2023-03-05T16:12:12.634Z,1.77
2023-03-05T16:14:40.473Z,1.60
2023-03-05T16:17:07.969Z,1.50
2023-03-05T16:19:36.895Z,1.40
2023-03-05T16:22:03.476Z,1.90
2023-03-05T16:24:30.236Z,1.10
2023-03-05T16:26:56.783Z,1.60
2023-03-05T16:29:23.530Z,1.67
2023-03-05T16:31:50.054Z,1.40
2023-03-05T16:34:16.609Z,1.25
2023-03-05T16:36:50.871Z,1.50
2023-03-05T16:39:17.484Z,1.50
2023-03-05T16:41:44.334Z,1.50
2023-03-05T16:44:11.680Z,1.90
2023-03-05T16:46:41.395Z,1.45
2023-03-05T16:49:11.237Z,1.33
2023-03-05T16:51:37.766Z,2.05
2023-03-05T16:54:04.300Z,2.00
2023-03-05T16:56:30.924Z,1.85
2023-03-05T16:58:57.392Z,1.90
2023-03-05T17:01:24.539Z,2.47
2023-03-05T17:03:52.642Z,2.58
2023-03-05T17:06:24.749Z,2.95
2023-03-05T17:08:52.718Z,2.28
2023-03-05T17:11:20.797Z,3.13
2023-03-05T17:13:49.030Z,2.90
2023-03-05T17:16:17.150Z,3.60
2023-03-05T17:18:43.804Z,3.70
2023-03-05T17:21:10.870Z,3.58
2023-03-05T17:23:38.302Z,3.85
2023-03-05T17:26:11.164Z,3.90
2023-03-05T17:28:37.994Z,3.63
2023-03-05T17:31:04.885Z,3.92
2023-03-05T17:33:32.933Z,4.78
2023-03-05T17:35:59.657Z,3.88
2023-03-05T17:38:26.755Z,3.47
2023-03-05T17:40:53.535Z,4.00
2023-03-05T17:43:20.347Z,4.25
2023-03-05T17:45:47.637Z,3.70
2023-03-05T17:48:15.973Z,4.43
2023-03-05T17:50:44.916Z,3.90
2023-03-05T17:53:11.572Z,3.80
2023-03-05T17:55:39.395Z,4.53
2023-03-05T17:58:05.913Z,4.72
2023-03-05T18:00:33.343Z,3.22
2023-03-05T18:03:00.186Z,4.47
2023-03-05T18:05:27.926Z,4.53
2023-03-05T18:07:55.566Z,5.28
2023-03-05T18:10:24.973Z,4.28
2023-03-05T18:12:52.387Z,4.55
2023-03-05T18:15:20.797Z,4.70
2023-03-05T18:17:47.672Z,4.65
2023-03-05T18:20:36.303Z,4.87
2023-03-05T18:23:04.432Z,4.63
2023-03-05T18:25:31.332Z,4.50
2023-03-05T18:28:02.603Z,5.53
2023-03-05T18:30:30.402Z,4.78
2023-03-05T18:32:57.502Z,3.95
2023-03-05T18:35:24.562Z,3.67
2023-03-05T18:37:51.574Z,3.30
2023-03-05T18:40:21.794Z,2.88
2023-03-05T18:42:48.774Z,3.88
2023-03-05T18:45:18.309Z,4.10
2023-03-05T18:47:45.248Z,3.40
2023-03-05T18:50:18.519Z,4.32
2023-03-05T18:52:45.685Z,4.43
2023-03-05T18:55:19.409Z,3.83
2023-03-05T18:57:46.401Z,3.45
2023-03-05T19:00:18.319Z,3.03
2023-03-05T19:02:44.913Z,4.18
2023-03-05T19:05:13.631Z,3.85
2023-03-05T19:07:40.623Z,3.22
2023-03-05T19:10:09.918Z,3.90
2023-03-05T19:12:45.390Z,3.83
2023-03-05T19:15:13.622Z,3.83
2023-03-05T19:17:40.542Z,3.55
2023-03-05T19:20:08.227Z,3.35
2023-03-05T19:22:36.224Z,3.45
2023-03-05T19:25:02.921Z,3.67
2023-03-05T19:27:29.417Z,3.83
2023-03-05T19:29:56.307Z,3.90
2023-03-05T19:32:23.700Z,3.45
2023-03-05T19:34:50.872Z,3.42
2023-03-05T19:37:18.261Z,3.72
2023-03-05T19:39:44.864Z,3.42
2023-03-05T19:42:11.753Z,3.47
2023-03-05T19:44:38.680Z,3.08
2023-03-05T19:47:05.578Z,3.17
2023-03-05T19:49:32.108Z,3.20
2023-03-05T19:51:58.665Z,3.45
2023-03-05T19:54:25.473Z,3.22
2023-03-05T19:56:54.848Z,3.47
2023-03-05T19:59:22.683Z,3.05
2023-03-05T20:01:50.060Z,2.97
2023-03-05T20:04:22.430Z,3.38
2023-03-05T20:06:49.220Z,2.85
2023-03-05T20:09:16.296Z,3.42
2023-03-05T20:11:43.874Z,3.50
2023-03-05T20:14:13.015Z,2.75
2023-03-05T20:16:39.593Z,3.40
2023-03-05T20:19:08.120Z,3.28
2023-03-05T20:21:40.813Z,4.20
2023-03-05T20:24:10.881Z,4.70
2023-03-05T20:26:39.233Z,4.00
2023-03-05T20:29:06.450Z,3.75
2023-03-05T20:31:36.774Z,4.65
2023-03-05T20:34:12.572Z,3.17
2023-03-05T20:36:39.298Z,3.15
2023-03-05T20:39:06.807Z,3.53
2023-03-05T20:41:34.947Z,3.50
2023-03-05T20:44:03.319Z,4.78
2023-03-05T20:46:32.408Z,4.65
2023-03-05T20:49:01.655Z,4.63
2023-03-05T20:51:35.062Z,4.32
2023-03-05T20:54:11.049Z,5.00
2023-03-05T20:56:37.809Z,3.97
2023-03-05T20:59:08.701Z,3.70
2023-03-05T21:01:37.993Z,3.72
2023-03-05T21:04:04.807Z,3.75
2023-03-05T21:06:32.671Z,3.63
2023-03-05T21:09:00.116Z,4.30
2023-03-05T21:11:26.680Z,3.58
2023-03-05T21:13:53.340Z,3.70
2023-03-05T21:16:23.029Z,3.53
2023-03-05T21:18:51.113Z,3.88
2023-03-05T21:21:18.662Z,3.55
2023-03-05T21:23:45.332Z,3.45
2023-03-05T21:26:13.333Z,3.90
2023-03-05T21:28:40.874Z,4.60
2023-03-05T21:31:10.554Z,3.80
2023-03-05T21:33:37.168Z,4.38
2023-03-05T21:36:03.888Z,3.83
2023-03-05T21:38:31.240Z,4.05
2023-03-05T21:40:58.977Z,4.35
2023-03-05T21:43:27.090Z,4.03
2023-03-05T21:45:54.779Z,4.27
2023-03-05T21:48:22.522Z,4.45
2023-03-05T21:50:50.144Z,4.22
2023-03-05T21:53:18.151Z,4.70
2023-03-05T21:56:08.684Z,4.43
2023-03-05T21:58:35.649Z,3.93
2023-03-05T22:01:05.594Z,4.45
2023-03-05T22:03:32.195Z,3.80
2023-03-05T22:05:59.014Z,3.88
2023-03-05T22:08:25.600Z,4.00
2023-03-05T22:10:52.253Z,3.00
2023-03-05T22:13:20.208Z,2.97
2023-03-05T22:15:49.146Z,2.97
2023-03-05T22:18:27.552Z,3.15
2023-03-05T22:20:54.971Z,3.38
2023-03-05T22:23:23.299Z,3.60
2023-03-05T22:26:01.496Z,3.03
2023-03-05T22:28:28.629Z,3.20
2023-03-05T22:30:56.017Z,3.47
2023-03-05T22:33:23.226Z,3.30
2023-03-05T22:35:50.103Z,2.13
2023-03-05T22:38:16.966Z,1.95
2023-03-05T22:40:45.944Z,2.60
2023-03-05T22:43:13.684Z,2.45
2023-03-05T22:45:40.613Z,2.95
2023-03-05T22:48:09.740Z,2.50
2023-03-05T22:50:40.716Z,2.30
2023-03-05T22:53:07.435Z,2.70
2023-03-05T22:55:34.243Z,2.50
2023-03-05T22:58:00.763Z,3.25
2023-03-05T23:00:27.299Z,2.20
2023-03-05T23:02:53.992Z,2.00
2023-03-05T23:05:21.091Z,2.85
2023-03-05T23:07:47.709Z,2.60
2023-03-05T23:10:18.306Z,2.33
2023-03-05T23:12:50.115Z,2.67
2023-03-05T23:15:23.062Z,3.10
2023-03-05T23:17:49.842Z,2.58
2023-03-05T23:20:20.295Z,2.58
2023-03-05T23:22:47.716Z,2.45
2023-03-05T23:25:15.773Z,1.97
2023-03-05T23:27:42.891Z,2.17
2023-03-05T23:30:26.737Z,1.95
2023-03-05T23:32:55.993Z,1.83
2023-03-05T23:35:28.458Z,1.92
2023-03-05T23:37:56.965Z,1.87
2023-03-05T23:40:26.686Z,1.73
2023-03-05T23:42:54.213Z,2.47
2023-03-05T23:45:22.523Z,1.83
2023-03-05T23:47:49.601Z,2.22
2023-03-05T23:50:28.777Z,1.63
2023-03-05T23:52:55.429Z,2.40
2023-03-05T23:55:25.681Z,2.45
2023-03-05T23:57:52.807Z,2.85
